Weather History for Zephyrhills, FL

Change the Weather History Date:

Saturday, November 24, 2012

  Actual Average (KPCM) Record (KPCM)
Temperature  
Mean Temperature 57 °F -  
Max Temperature 73 °F 77 °F 88 °F (1958)
Min Temperature 41 °F 54 °F 31 °F (1970)
Degree Days  
Heating Degree Days 8    
Growing Degree Days 7 (Base 50)    
Moisture  
Dew Point 45 °F    
Average Humidity 74    
Maximum Humidity 100    
Minimum Humidity 35    
Precipitation  
Precipitation 0.00 in - - ()
Sea Level Pressure  
Sea Level Pressure 30.09 in    
Wind  
Wind Speed 3 mph ()    
Max Wind Speed 15 mph    
Max Gust Speed 21 mph    
Visibility 9.0 miles    
Events Fog    
Averages and records for this station are not official NWS values.
T = Trace of Precipitation, MM = Missing Value Source: Averaged Metar Reports

Daily Weather History Graph

Daily Weather History Graph

Search for Another Location

Airport:

Trip Planner

Search our weather history database for the weather conditions in past years. The results will help you decide how hot, cold, wet, or windy it might be!

Date:

Astronomy

Nov. 24, 2012 Rise Set
Actual Time 6:58 AM EST 5:32 PM EST
Civil Twilight 6:32 AM EST 5:57 PM EST
Nautical Twilight 6:04 AM EST 6:26 PM EST
Astronomical Twilight 5:35 AM EST 6:55 PM EST
Moon 3:04 PM EST (11/24) 3:28 AM EST (11/24)
Length of Visible Light 11h 25m
Length of Day
10h 34m
Waxing Gibbous, 87% of the Moon is Illuminated
Nov 24
Waxing Gibbous
Nov 28
Full
Dec 6
Last Quarter
Dec 13
New
Dec 20
First Quarter

Hourly Weather History & Observations

Time (EST) Temp. Dew Point Humidity Pressure Visibility Wind Dir Wind Speed Gust Speed Precip Events Conditions
12:15 AM 42.8 °F 41.0 °F 93% 30.12 in 10.0 mi Calm Calm - N/A   Clear
12:35 AM 42.8 °F 42.8 °F 100% 30.12 in 10.0 mi Calm Calm - N/A   Clear
12:55 AM 44.6 °F 42.8 °F 93% 30.11 in 10.0 mi Calm Calm - N/A   Clear
1:15 AM 44.6 °F 42.8 °F 93% 30.11 in 10.0 mi Calm Calm - N/A   Clear
1:35 AM 44.6 °F 42.8 °F 93% 30.11 in 10.0 mi Calm Calm - N/A   Clear
1:55 AM 42.8 °F 42.8 °F 100% 30.10 in 10.0 mi Calm Calm - N/A   Clear
2:15 AM 44.6 °F 42.8 °F 93% 30.10 in 10.0 mi Calm Calm - N/A   Clear
2:35 AM 42.8 °F 42.8 °F 100% 30.10 in 7.0 mi Calm Calm - N/A   Clear
2:55 AM 42.8 °F 41.0 °F 93% 30.09 in 10.0 mi Calm Calm - N/A   Clear
3:35 AM 42.8 °F 41.0 °F 93% 30.09 in 0.5 mi Calm Calm - N/A Fog Fog
3:55 AM 42.8 °F 41.0 °F 93% 30.09 in 0.5 mi Calm Calm - N/A Fog Fog
4:15 AM 42.8 °F 41.0 °F 93% 30.08 in 0.5 mi Calm Calm - N/A Fog Fog
4:35 AM 41.0 °F 41.0 °F 100% 30.08 in 7.0 mi Calm Calm - N/A   Clear
4:55 AM 41.0 °F 41.0 °F 100% 30.08 in 5.0 mi Calm Calm - N/A   Clear
5:15 AM 41.0 °F 41.0 °F 100% 30.08 in 1.5 mi Calm Calm - N/A   Mist
5:35 AM 41.0 °F 41.0 °F 100% 30.08 in 7.0 mi Calm Calm - N/A   Clear
5:55 AM 41.0 °F 41.0 °F 100% 30.09 in 7.0 mi Calm Calm - N/A   Clear
6:15 AM 42.8 °F 41.0 °F 93% 30.10 in 5.0 mi Calm Calm - N/A   Clear
6:35 AM 41.0 °F 41.0 °F 100% 30.10 in 10.0 mi Calm Calm - N/A   Clear
6:55 AM 41.0 °F 41.0 °F 100% 30.11 in 7.0 mi Calm Calm - N/A   Clear
7:15 AM 41.0 °F 39.2 °F 93% 30.11 in 4.0 mi Calm Calm - N/A   Clear
7:35 AM 42.8 °F 41.0 °F 93% 30.12 in 10.0 mi Calm Calm - N/A   Clear
7:55 AM 44.6 °F 44.6 °F 100% 30.12 in 10.0 mi Calm Calm - N/A   Clear
8:15 AM 48.2 °F 46.4 °F 93% 30.12 in 10.0 mi Calm Calm - N/A   Clear
8:35 AM 51.8 °F 51.8 °F 100% 30.13 in 10.0 mi Calm Calm - N/A   Clear
8:55 AM 55.4 °F 53.6 °F 94% 30.13 in 10.0 mi Calm Calm - N/A   Clear
9:15 AM 60.8 °F 53.6 °F 77% 30.13 in 10.0 mi West 4.6 mph - N/A   Clear
9:35 AM 64.4 °F 55.4 °F 73% 30.13 in 10.0 mi WNW 4.6 mph - N/A   Clear
9:55 AM 68.0 °F 55.4 °F 64% 30.13 in 10.0 mi NW 5.8 mph - N/A   Clear
10:15 AM 68.0 °F 55.4 °F 64% 30.13 in 10.0 mi NW 9.2 mph - N/A   Clear
10:35 AM 69.8 °F 55.4 °F 60% 30.12 in 10.0 mi WNW 6.9 mph - N/A   Clear
10:55 AM 71.6 °F 55.4 °F 57% 30.12 in 10.0 mi NW 6.9 mph - N/A   Scattered Clouds
11:15 AM 71.6 °F 53.6 °F 53% 30.12 in 10.0 mi NW 6.9 mph - N/A   Mostly Cloudy
11:35 AM 68.0 °F 51.8 °F 56% 30.11 in 10.0 mi NNW 5.8 mph 9.2 mph N/A   Mostly Cloudy
11:55 AM 71.6 °F 51.8 °F 50% 30.10 in 10.0 mi NW 8.1 mph - N/A   Scattered Clouds
12:15 PM 71.6 °F 51.8 °F 50% 30.08 in 10.0 mi West 10.4 mph 16.1 mph N/A   Clear
12:35 PM 71.6 °F 51.8 °F 50% 30.07 in 10.0 mi NW 9.2 mph - N/A   Scattered Clouds
12:55 PM 73.4 °F 50.0 °F 44% 30.06 in 10.0 mi NW 11.5 mph 17.3 mph N/A   Scattered Clouds
1:15 PM 73.4 °F 50.0 °F 44% 30.05 in 10.0 mi West 10.4 mph 17.3 mph N/A   Clear
1:35 PM 73.4 °F 46.4 °F 38% 30.05 in 10.0 mi WNW 9.2 mph 20.7 mph N/A   Clear
1:55 PM 73.4 °F 46.4 °F 38% 30.04 in 10.0 mi WNW 12.7 mph 18.4 mph N/A   Clear
2:15 PM 73.4 °F 46.4 °F 38% 30.04 in 10.0 mi WNW 9.2 mph - N/A   Clear
2:35 PM 73.4 °F 44.6 °F 36% 30.03 in 10.0 mi NW 11.5 mph - N/A   Clear
2:55 PM 71.6 °F 42.8 °F 35% 30.03 in 10.0 mi West 13.8 mph 17.3 mph N/A   Clear
3:15 PM 71.6 °F 42.8 °F 35% 30.03 in 10.0 mi WNW 12.7 mph 16.1 mph N/A   Clear
3:35 PM 71.6 °F 44.6 °F 38% 30.03 in 10.0 mi West 15.0 mph - N/A   Clear
3:55 PM 69.8 °F 42.8 °F 38% 30.03 in 10.0 mi WNW 12.7 mph - N/A   Clear
4:15 PM 69.8 °F 42.8 °F 38% 30.04 in 10.0 mi WNW 9.2 mph - N/A   Clear
4:35 PM 64.4 °F 44.6 °F 49% 30.04 in 10.0 mi West 9.2 mph - N/A   Clear
4:55 PM 64.4 °F 44.6 °F 49% 30.05 in 10.0 mi WNW 9.2 mph - N/A   Clear
5:15 PM 62.6 °F 44.6 °F 52% 30.07 in 10.0 mi West 9.2 mph - N/A   Clear
5:35 PM 60.8 °F 44.6 °F 55% 30.06 in 10.0 mi WNW 9.2 mph - N/A   Clear
5:55 PM 59.0 °F 44.6 °F 59% 30.07 in 10.0 mi WNW 9.2 mph - N/A   Clear
6:15 PM 59.0 °F 44.6 °F 59% 30.07 in 10.0 mi WNW 9.2 mph - N/A   Clear
6:35 PM 55.4 °F 42.8 °F 63% 30.08 in 10.0 mi WNW 9.2 mph - N/A   Clear
6:55 PM 55.4 °F 42.8 °F 63% 30.09 in 10.0 mi WNW 5.8 mph - N/A   Clear
7:15 PM 53.6 °F 42.8 °F 67% 30.09 in 10.0 mi Calm Calm - N/A   Clear
7:35 PM 53.6 °F 42.8 °F 67% 30.09 in 10.0 mi NW 4.6 mph - N/A   Clear
7:55 PM 51.8 °F 42.8 °F 71% 30.10 in 10.0 mi NW 3.5 mph - N/A   Clear
8:15 PM 51.8 °F 42.8 °F 71% 30.10 in 10.0 mi Calm Calm - N/A   Clear
8:35 PM 51.8 °F 42.8 °F 71% 30.10 in 10.0 mi Calm Calm - N/A   Clear
8:55 PM 50.0 °F 42.8 °F 76% 30.11 in 10.0 mi Calm Calm - N/A   Clear
9:15 PM 44.6 °F 41.0 °F 87% 30.11 in 10.0 mi Calm Calm - N/A   Clear
9:35 PM 44.6 °F 42.8 °F 93% 30.12 in 10.0 mi Calm Calm - N/A   Clear
9:55 PM 46.4 °F 42.8 °F 87% 30.12 in 10.0 mi Calm Calm - N/A   Clear
10:15 PM 44.6 °F 42.8 °F 93% 30.12 in 10.0 mi Calm Calm - N/A   Clear
10:35 PM 42.8 °F 41.0 °F 93% 30.13 in 10.0 mi Calm Calm - N/A   Clear
10:55 PM 44.6 °F 42.8 °F 93% 30.13 in 10.0 mi Calm Calm - N/A   Clear
11:15 PM 42.8 °F 41.0 °F 93% 30.13 in 10.0 mi Calm Calm - N/A   Clear
11:35 PM 42.8 °F 42.8 °F 100% 30.13 in 7.0 mi Calm Calm - N/A   Clear
11:55 PM 42.8 °F 41.0 °F 93% 30.12 in 10.0 mi Calm Calm - N/A   Clear